sensor_id;sensor_type;location;lat;lon;timestamp;pressure;altitude;pressure_sealevel;temperature;humidity
8294;BME280;4185;41.506;24.938;2022-08-21T00:00:53;92995.75;;;23.02;67.19
8294;BME280;4185;41.506;24.938;2022-08-21T00:03:20;93005.69;;;23.05;66.94
8294;BME280;4185;41.506;24.938;2022-08-21T00:05:49;93005.38;;;23.01;67.12
8294;BME280;4185;41.506;24.938;2022-08-21T00:08:18;93009.56;;;22.92;69.22
8294;BME280;4185;41.506;24.938;2022-08-21T00:10:45;93011.88;;;22.86;69.13
8294;BME280;4185;41.506;24.938;2022-08-21T00:13:14;93015.38;;;22.87;69.39
8294;BME280;4185;41.506;24.938;2022-08-21T00:15:42;93006.59;;;22.81;70.44
8294;BME280;4185;41.506;24.938;2022-08-21T00:18:09;93011.06;;;22.67;71.89
8294;BME280;4185;41.506;24.938;2022-08-21T00:20:38;93016.28;;;22.63;71.71
8294;BME280;4185;41.506;24.938;2022-08-21T00:23:06;93020.34;;;22.62;72.59
8294;BME280;4185;41.506;24.938;2022-08-21T00:25:33;93025.66;;;22.50;72.35
8294;BME280;4185;41.506;24.938;2022-08-21T00:28:00;93030.81;;;22.54;72.76
8294;BME280;4185;41.506;24.938;2022-08-21T00:30:30;93017.44;;;22.60;71.69
8294;BME280;4185;41.506;24.938;2022-08-21T00:32:57;93021.69;;;22.61;71.96
8294;BME280;4185;41.506;24.938;2022-08-21T00:35:27;93012.63;;;22.60;72.11
8294;BME280;4185;41.506;24.938;2022-08-21T00:37:55;93011.19;;;22.59;71.91
8294;BME280;4185;41.506;24.938;2022-08-21T00:40:24;93008.31;;;22.50;72.35
8294;BME280;4185;41.506;24.938;2022-08-21T00:42:52;92998.94;;;22.36;73.65
8294;BME280;4185;41.506;24.938;2022-08-21T00:45:19;93011.19;;;22.42;73.47
8294;BME280;4185;41.506;24.938;2022-08-21T00:47:48;93011.66;;;22.48;73.56
8294;BME280;4185;41.506;24.938;2022-08-21T00:50:15;93003.13;;;22.54;73.19
8294;BME280;4185;41.506;24.938;2022-08-21T00:52:42;93002.72;;;22.57;73.05
8294;BME280;4185;41.506;24.938;2022-08-21T00:55:10;93000.09;;;22.59;72.82
8294;BME280;4185;41.506;24.938;2022-08-21T00:57:41;93007.75;;;22.51;73.72
8294;BME280;4185;41.506;24.938;2022-08-21T01:00:13;93014.19;;;22.54;73.92
8294;BME280;4185;41.506;24.938;2022-08-21T01:02:40;93024.69;;;22.55;74.05
8294;BME280;4185;41.506;24.938;2022-08-21T01:05:09;93022.00;;;22.48;74.03
8294;BME280;4185;41.506;24.938;2022-08-21T01:07:36;93026.91;;;22.40;73.88
8294;BME280;4185;41.506;24.938;2022-08-21T01:10:04;93020.41;;;22.28;74.03
8294;BME280;4185;41.506;24.938;2022-08-21T01:12:32;93027.28;;;22.27;73.55
8294;BME280;4185;41.506;24.938;2022-08-21T01:14:59;93041.19;;;22.19;71.68
8294;BME280;4185;41.506;24.938;2022-08-21T01:17:27;93042.91;;;22.15;72.04
8294;BME280;4185;41.506;24.938;2022-08-21T01:19:57;93038.19;;;22.08;71.11
8294;BME280;4185;41.506;24.938;2022-08-21T01:22:26;93039.66;;;22.09;71.28
8294;BME280;4185;41.506;24.938;2022-08-21T01:24:53;93039.16;;;22.03;70.92
8294;BME280;4185;41.506;24.938;2022-08-21T01:27:20;93044.38;;;21.99;71.00
8294;BME280;4185;41.506;24.938;2022-08-21T01:29:52;93059.19;;;21.94;71.00
8294;BME280;4185;41.506;24.938;2022-08-21T01:32:22;93071.72;;;21.95;70.31
8294;BME280;4185;41.506;24.938;2022-08-21T01:34:50;93101.63;;;21.89;70.59
8294;BME280;4185;41.506;24.938;2022-08-21T01:37:19;93090.91;;;21.93;70.11
8294;BME280;4185;41.506;24.938;2022-08-21T01:39:48;93098.47;;;21.92;67.50
8294;BME280;4185;41.506;24.938;2022-08-21T01:42:15;93097.88;;;21.94;66.32
8294;BME280;4185;41.506;24.938;2022-08-21T01:44:42;93106.03;;;21.92;66.82
8294;BME280;4185;41.506;24.938;2022-08-21T01:47:11;93122.69;;;21.84;69.38
8294;BME280;4185;41.506;24.938;2022-08-21T01:49:39;93141.09;;;21.64;70.92
8294;BME280;4185;41.506;24.938;2022-08-21T01:52:07;93153.28;;;21.61;73.84
8294;BME280;4185;41.506;24.938;2022-08-21T01:54:35;93165.72;;;21.53;74.84
8294;BME280;4185;41.506;24.938;2022-08-21T01:57:04;93158.44;;;21.40;74.87
8294;BME280;4185;41.506;24.938;2022-08-21T02:10:37;93132.03;;;20.90;75.50
8294;BME280;4185;41.506;24.938;2022-08-21T02:13:04;93155.91;;;20.63;78.05
8294;BME280;4185;41.506;24.938;2022-08-21T02:15:32;93164.84;;;20.39;78.55
8294;BME280;4185;41.506;24.938;2022-08-21T02:18:01;93182.34;;;20.26;79.55
8294;BME280;4185;41.506;24.938;2022-08-21T02:20:30;93211.22;;;20.10;81.07
8294;BME280;4185;41.506;24.938;2022-08-21T02:22:57;93243.97;;;19.84;83.18
8294;BME280;4185;41.506;24.938;2022-08-21T02:25:26;93248.34;;;19.64;86.07
8294;BME280;4185;41.506;24.938;2022-08-21T02:27:54;93230.53;;;19.58;83.88
8294;BME280;4185;41.506;24.938;2022-08-21T02:30:24;93186.28;;;19.63;82.28
8294;BME280;4185;41.506;24.938;2022-08-21T02:32:52;93189.53;;;19.84;84.36
8294;BME280;4185;41.506;24.938;2022-08-21T02:35:20;93173.34;;;20.03;83.75
8294;BME280;4185;41.506;24.938;2022-08-21T02:37:49;93164.53;;;20.20;83.29
8294;BME280;4185;41.506;24.938;2022-08-21T02:40:18;93149.47;;;20.21;83.72
8294;BME280;4185;41.506;24.938;2022-08-21T02:42:45;93156.44;;;20.22;83.01
8294;BME280;4185;41.506;24.938;2022-08-21T02:45:14;93150.00;;;20.12;83.65
8294;BME280;4185;41.506;24.938;2022-08-21T02:47:47;93144.28;;;20.10;83.98
8294;BME280;4185;41.506;24.938;2022-08-21T02:50:18;93141.56;;;20.17;84.43
8294;BME280;4185;41.506;24.938;2022-08-21T02:52:46;93143.56;;;20.17;82.59
8294;BME280;4185;41.506;24.938;2022-08-21T02:55:12;93147.41;;;20.14;81.82
8294;BME280;4185;41.506;24.938;2022-08-21T02:57:39;93132.16;;;20.13;82.20
8294;BME280;4185;41.506;24.938;2022-08-21T03:00:08;93123.53;;;20.16;82.32
8294;BME280;4185;41.506;24.938;2022-08-21T03:02:37;93136.94;;;20.05;83.59
8294;BME280;4185;41.506;24.938;2022-08-21T03:05:05;93143.03;;;19.96;84.52
8294;BME280;4185;41.506;24.938;2022-08-21T03:07:32;93148.38;;;19.86;85.27
8294;BME280;4185;41.506;24.938;2022-08-21T03:09:59;93139.59;;;19.80;86.26
8294;BME280;4185;41.506;24.938;2022-08-21T03:12:26;93130.41;;;19.85;86.28
8294;BME280;4185;41.506;24.938;2022-08-21T03:14:52;93130.19;;;19.91;87.87
8294;BME280;4185;41.506;24.938;2022-08-21T03:17:19;93128.91;;;19.84;87.53
8294;BME280;4185;41.506;24.938;2022-08-21T03:19:47;93121.22;;;19.75;87.80
8294;BME280;4185;41.506;24.938;2022-08-21T03:22:14;93113.50;;;19.74;88.23
8294;BME280;4185;41.506;24.938;2022-08-21T03:24:41;93111.47;;;19.82;87.87
8294;BME280;4185;41.506;24.938;2022-08-21T03:27:08;93104.47;;;19.81;87.88
8294;BME280;4185;41.506;24.938;2022-08-21T03:29:35;93105.06;;;19.72;87.75
8294;BME280;4185;41.506;24.938;2022-08-21T03:32:02;93112.06;;;19.58;88.42
8294;BME280;4185;41.506;24.938;2022-08-21T03:34:29;93120.88;;;19.49;89.17
8294;BME280;4185;41.506;24.938;2022-08-21T03:36:57;93118.66;;;19.47;89.53
8294;BME280;4185;41.506;24.938;2022-08-21T03:39:24;93117.38;;;19.56;89.16
8294;BME280;4185;41.506;24.938;2022-08-21T03:41:51;93106.56;;;19.65;88.79
8294;BME280;4185;41.506;24.938;2022-08-21T03:44:18;93106.16;;;19.69;87.81
8294;BME280;4185;41.506;24.938;2022-08-21T03:46:45;93112.06;;;19.65;87.07
8294;BME280;4185;41.506;24.938;2022-08-21T03:49:12;93105.25;;;19.59;87.20
8294;BME280;4185;41.506;24.938;2022-08-21T03:51:38;93112.59;;;19.64;87.50
8294;BME280;4185;41.506;24.938;2022-08-21T03:54:07;93117.75;;;19.60;87.85
8294;BME280;4185;41.506;24.938;2022-08-21T03:56:34;93124.91;;;19.55;88.65
8294;BME280;4185;41.506;24.938;2022-08-21T03:59:00;93124.00;;;19.53;89.19
8294;BME280;4185;41.506;24.938;2022-08-21T04:01:29;93124.19;;;19.47;89.64
8294;BME280;4185;41.506;24.938;2022-08-21T04:03:56;93129.69;;;19.32;90.62
8294;BME280;4185;41.506;24.938;2022-08-21T04:06:23;93117.00;;;19.21;91.56
8294;BME280;4185;41.506;24.938;2022-08-21T04:08:50;93108.00;;;19.28;91.64
8294;BME280;4185;41.506;24.938;2022-08-21T04:11:18;93125.47;;;19.38;91.21
8294;BME280;4185;41.506;24.938;2022-08-21T04:13:45;93117.97;;;19.47;90.13
8294;BME280;4185;41.506;24.938;2022-08-21T04:16:13;93107.66;;;19.55;89.55
8294;BME280;4185;41.506;24.938;2022-08-21T04:18:40;93099.75;;;19.59;89.31
8294;BME280;4185;41.506;24.938;2022-08-21T04:21:09;93109.13;;;19.63;89.02
8294;BME280;4185;41.506;24.938;2022-08-21T04:23:37;93107.06;;;19.64;89.11
8294;BME280;4185;41.506;24.938;2022-08-21T04:26:04;93108.75;;;19.67;89.28
8294;BME280;4185;41.506;24.938;2022-08-21T04:28:32;93099.19;;;19.68;88.64
8294;BME280;4185;41.506;24.938;2022-08-21T04:30:59;93102.88;;;19.63;89.35
8294;BME280;4185;41.506;24.938;2022-08-21T04:33:26;93102.16;;;19.55;89.77
8294;BME280;4185;41.506;24.938;2022-08-21T04:35:54;93091.88;;;19.48;90.52
8294;BME280;4185;41.506;24.938;2022-08-21T04:38:21;93096.66;;;19.39;91.42
8294;BME280;4185;41.506;24.938;2022-08-21T04:40:48;93089.31;;;19.34;90.58
8294;BME280;4185;41.506;24.938;2022-08-21T04:43:16;93091.47;;;19.28;90.53
8294;BME280;4185;41.506;24.938;2022-08-21T04:45:46;93087.06;;;19.25;91.07
8294;BME280;4185;41.506;24.938;2022-08-21T04:48:16;93084.50;;;19.20;91.68
8294;BME280;4185;41.506;24.938;2022-08-21T04:50:47;93090.00;;;19.20;92.02
8294;BME280;4185;41.506;24.938;2022-08-21T04:53:20;93094.97;;;19.14;91.41
8294;BME280;4185;41.506;24.938;2022-08-21T04:55:48;93090.38;;;19.16;92.19
8294;BME280;4185;41.506;24.938;2022-08-21T04:58:17;93086.00;;;19.21;91.92
8294;BME280;4185;41.506;24.938;2022-08-21T05:00:46;93095.53;;;19.27;92.68
8294;BME280;4185;41.506;24.938;2022-08-21T05:03:15;93081.22;;;19.36;92.70
8294;BME280;4185;41.506;24.938;2022-08-21T05:05:43;93074.97;;;19.43;92.49
8294;BME280;4185;41.506;24.938;2022-08-21T05:08:12;93063.59;;;19.47;91.97
8294;BME280;4185;41.506;24.938;2022-08-21T05:10:41;93053.69;;;19.44;91.53
8294;BME280;4185;41.506;24.938;2022-08-21T05:13:10;93056.97;;;19.35;92.33
8294;BME280;4185;41.506;24.938;2022-08-21T05:15:38;93055.50;;;19.26;93.63
8294;BME280;4185;41.506;24.938;2022-08-21T05:18:06;93054.94;;;19.13;93.92
8294;BME280;4185;41.506;24.938;2022-08-21T05:20:33;93050.38;;;19.08;94.59
8294;BME280;4185;41.506;24.938;2022-08-21T05:23:01;93048.16;;;19.06;95.18
8294;BME280;4185;41.506;24.938;2022-08-21T05:25:32;93044.13;;;19.00;94.74
8294;BME280;4185;41.506;24.938;2022-08-21T05:27:59;93047.44;;;18.98;94.32
8294;BME280;4185;41.506;24.938;2022-08-21T05:30:26;93060.66;;;19.00;94.11
8294;BME280;4185;41.506;24.938;2022-08-21T05:32:56;93065.78;;;19.03;94.13
8294;BME280;4185;41.506;24.938;2022-08-21T05:35:25;93059.94;;;19.14;94.00
8294;BME280;4185;41.506;24.938;2022-08-21T05:37:53;93068.34;;;19.24;93.64
8294;BME280;4185;41.506;24.938;2022-08-21T05:40:19;93070.03;;;19.34;93.36
8294;BME280;4185;41.506;24.938;2022-08-21T05:42:46;93079.00;;;19.35;91.34
8294;BME280;4185;41.506;24.938;2022-08-21T05:45:13;93071.13;;;19.39;92.22
8294;BME280;4185;41.506;24.938;2022-08-21T05:47:40;93073.88;;;19.47;93.07
8294;BME280;4185;41.506;24.938;2022-08-21T05:50:07;93080.09;;;19.55;92.96
8294;BME280;4185;41.506;24.938;2022-08-21T05:52:36;93083.56;;;19.63;92.94
8294;BME280;4185;41.506;24.938;2022-08-21T05:55:03;93095.13;;;19.69;93.08
8294;BME280;4185;41.506;24.938;2022-08-21T05:57:30;93092.00;;;19.72;92.51
8294;BME280;4185;41.506;24.938;2022-08-21T05:59:57;93091.44;;;19.74;92.46
8294;BME280;4185;41.506;24.938;2022-08-21T06:02:24;93092.19;;;19.74;92.32
8294;BME280;4185;41.506;24.938;2022-08-21T06:04:51;93087.22;;;19.73;92.72
8294;BME280;4185;41.506;24.938;2022-08-21T06:07:18;93083.56;;;19.70;93.80
8294;BME280;4185;41.506;24.938;2022-08-21T06:09:46;93087.44;;;19.60;93.33
8294;BME280;4185;41.506;24.938;2022-08-21T06:12:14;93090.75;;;19.51;93.23
8294;BME280;4185;41.506;24.938;2022-08-21T06:14:41;93085.06;;;19.49;93.92
8294;BME280;4185;41.506;24.938;2022-08-21T06:17:11;93085.25;;;19.51;93.86
8294;BME280;4185;41.506;24.938;2022-08-21T06:19:39;93087.25;;;19.50;93.31
8294;BME280;4185;41.506;24.938;2022-08-21T06:22:06;93085.97;;;19.59;93.61
8294;BME280;4185;41.506;24.938;2022-08-21T06:24:33;93089.47;;;19.67;93.03
8294;BME280;4185;41.506;24.938;2022-08-21T06:27:05;93080.28;;;19.64;92.51
8294;BME280;4185;41.506;24.938;2022-08-21T06:29:33;93075.84;;;19.69;91.11
8294;BME280;4185;41.506;24.938;2022-08-21T06:32:00;93074.19;;;19.66;91.57
8294;BME280;4185;41.506;24.938;2022-08-21T06:34:28;93074.56;;;19.70;92.67
8294;BME280;4185;41.506;24.938;2022-08-21T06:36:55;93082.66;;;19.68;93.02
8294;BME280;4185;41.506;24.938;2022-08-21T06:39:21;93080.81;;;19.63;93.74
8294;BME280;4185;41.506;24.938;2022-08-21T06:41:48;93082.09;;;19.69;94.32
8294;BME280;4185;41.506;24.938;2022-08-21T06:44:17;93066.81;;;19.76;94.90
8294;BME280;4185;41.506;24.938;2022-08-21T06:46:44;93064.63;;;19.82;95.48
8294;BME280;4185;41.506;24.938;2022-08-21T06:49:11;93070.47;;;19.86;95.11
8294;BME280;4185;41.506;24.938;2022-08-21T06:51:38;93069.53;;;19.91;93.66
8294;BME280;4185;41.506;24.938;2022-08-21T06:54:05;93064.59;;;19.89;93.19
8294;BME280;4185;41.506;24.938;2022-08-21T06:56:32;93066.06;;;19.83;94.20
8294;BME280;4185;41.506;24.938;2022-08-21T06:59:00;93053.59;;;19.82;94.92
8294;BME280;4185;41.506;24.938;2022-08-21T07:01:28;93051.72;;;19.92;94.72
8294;BME280;4185;41.506;24.938;2022-08-21T07:03:55;93056.47;;;19.99;94.16
8294;BME280;4185;41.506;24.938;2022-08-21T07:06:22;93053.75;;;19.91;92.12
8294;BME280;4185;41.506;24.938;2022-08-21T07:08:50;93053.00;;;19.91;92.05
8294;BME280;4185;41.506;24.938;2022-08-21T07:11:18;93051.34;;;19.95;91.88
8294;BME280;4185;41.506;24.938;2022-08-21T07:13:46;93052.94;;;20.06;91.52
8294;BME280;4185;41.506;24.938;2022-08-21T07:16:14;93042.66;;;20.06;90.60
8294;BME280;4185;41.506;24.938;2022-08-21T07:18:42;93049.81;;;20.17;91.94
8294;BME280;4185;41.506;24.938;2022-08-21T07:21:09;93046.84;;;20.15;90.53
8294;BME280;4185;41.506;24.938;2022-08-21T07:23:39;93045.94;;;20.20;90.42
8294;BME280;4185;41.506;24.938;2022-08-21T07:26:06;93041.66;;;20.34;90.61
8294;BME280;4185;41.506;24.938;2022-08-21T07:28:34;93041.38;;;20.47;90.60
8294;BME280;4185;41.506;24.938;2022-08-21T07:31:02;93030.13;;;20.52;90.10
8294;BME280;4185;41.506;24.938;2022-08-21T07:33:31;93027.88;;;20.58;89.87
8294;BME280;4185;41.506;24.938;2022-08-21T07:36:00;93026.63;;;20.52;90.31
8294;BME280;4185;41.506;24.938;2022-08-21T07:38:27;93021.28;;;20.54;89.00
8294;BME280;4185;41.506;24.938;2022-08-21T07:40:56;93013.50;;;20.60;88.93
8294;BME280;4185;41.506;24.938;2022-08-21T07:43:25;93010.38;;;20.63;88.91
8294;BME280;4185;41.506;24.938;2022-08-21T07:45:52;93010.22;;;20.62;87.51
8294;BME280;4185;41.506;24.938;2022-08-21T07:48:20;92997.81;;;20.70;89.59
8294;BME280;4185;41.506;24.938;2022-08-21T07:50:47;93006.44;;;20.74;88.42
8294;BME280;4185;41.506;24.938;2022-08-21T07:53:15;92999.00;;;20.84;87.78
8294;BME280;4185;41.506;24.938;2022-08-21T07:55:42;93002.72;;;20.79;86.54
8294;BME280;4185;41.506;24.938;2022-08-21T07:58:09;93006.41;;;20.82;86.03
8294;BME280;4185;41.506;24.938;2022-08-21T08:00:36;93012.63;;;20.82;85.85
8294;BME280;4185;41.506;24.938;2022-08-21T08:03:03;93013.88;;;20.89;87.91
8294;BME280;4185;41.506;24.938;2022-08-21T08:05:31;93009.25;;;20.91;87.34
8294;BME280;4185;41.506;24.938;2022-08-21T08:07:58;93008.66;;;21.00;86.86
8294;BME280;4185;41.506;24.938;2022-08-21T08:10:26;93008.50;;;20.98;85.69
8294;BME280;4185;41.506;24.938;2022-08-21T08:12:53;93005.34;;;21.02;86.86
8294;BME280;4185;41.506;24.938;2022-08-21T08:15:23;93006.09;;;21.19;85.64
8294;BME280;4185;41.506;24.938;2022-08-21T08:17:50;93004.50;;;21.33;86.61
8294;BME280;4185;41.506;24.938;2022-08-21T08:20:18;93006.63;;;21.42;83.75
8294;BME280;4185;41.506;24.938;2022-08-21T08:22:45;93006.28;;;21.38;83.18
8294;BME280;4185;41.506;24.938;2022-08-21T08:25:13;92991.84;;;21.47;84.58
8294;BME280;4185;41.506;24.938;2022-08-21T08:27:41;92992.81;;;21.59;84.15
8294;BME280;4185;41.506;24.938;2022-08-21T08:30:11;92996.47;;;21.62;83.40
8294;BME280;4185;41.506;24.938;2022-08-21T08:32:38;93001.13;;;21.59;83.36
8294;BME280;4185;41.506;24.938;2022-08-21T08:35:06;92999.16;;;21.52;82.60
8294;BME280;4185;41.506;24.938;2022-08-21T08:37:34;92993.78;;;21.54;83.53
8294;BME280;4185;41.506;24.938;2022-08-21T08:40:04;92993.94;;;21.56;82.70
8294;BME280;4185;41.506;24.938;2022-08-21T08:42:34;92996.69;;;21.56;79.90
8294;BME280;4185;41.506;24.938;2022-08-21T08:45:06;92990.47;;;21.73;81.64
8294;BME280;4185;41.506;24.938;2022-08-21T08:47:36;92991.19;;;21.91;81.89
8294;BME280;4185;41.506;24.938;2022-08-21T08:50:07;92985.97;;;22.12;81.10
8294;BME280;4185;41.506;24.938;2022-08-21T08:52:40;92984.63;;;22.30;81.13
8294;BME280;4185;41.506;24.938;2022-08-21T08:55:13;92984.09;;;22.41;79.88
8294;BME280;4185;41.506;24.938;2022-08-21T08:57:44;92974.16;;;22.38;78.41
8294;BME280;4185;41.506;24.938;2022-08-21T09:00:16;92982.16;;;22.34;78.27
8294;BME280;4185;41.506;24.938;2022-08-21T09:02:45;92985.44;;;22.23;78.28
8294;BME280;4185;41.506;24.938;2022-08-21T09:05:24;92973.53;;;22.30;80.43
8294;BME280;4185;41.506;24.938;2022-08-21T09:08:11;92977.88;;;22.50;80.37
8294;BME280;4185;41.506;24.938;2022-08-21T09:10:48;92973.28;;;22.62;78.89
8294;BME280;4185;41.506;24.938;2022-08-21T09:13:24;92972.47;;;22.78;80.87
8294;BME280;4185;41.506;24.938;2022-08-21T09:16:04;92970.06;;;22.92;79.08
8294;BME280;4185;41.506;24.938;2022-08-21T09:18:39;92973.75;;;23.04;78.47
8294;BME280;4185;41.506;24.938;2022-08-21T09:21:18;92964.69;;;23.04;78.10
8294;BME280;4185;41.506;24.938;2022-08-21T09:23:55;92961.22;;;23.03;77.93
8294;BME280;4185;41.506;24.938;2022-08-21T09:26:30;92958.44;;;23.03;77.00
8294;BME280;4185;41.506;24.938;2022-08-21T09:28:59;92964.41;;;23.09;77.81
8294;BME280;4185;41.506;24.938;2022-08-21T09:31:30;92960.38;;;23.20;76.95
8294;BME280;4185;41.506;24.938;2022-08-21T09:33:59;92956.34;;;23.30;77.79
8294;BME280;4185;41.506;24.938;2022-08-21T09:36:33;92956.63;;;23.34;77.38
8294;BME280;4185;41.506;24.938;2022-08-21T09:39:02;92947.88;;;23.38;77.12
8294;BME280;4185;41.506;24.938;2022-08-21T09:41:31;92957.50;;;23.37;77.14
8294;BME280;4185;41.506;24.938;2022-08-21T09:43:59;92960.13;;;23.35;75.71
8294;BME280;4185;41.506;24.938;2022-08-21T09:46:28;92962.31;;;23.36;76.78
8294;BME280;4185;41.506;24.938;2022-08-21T09:48:57;92958.69;;;23.34;74.20
8294;BME280;4185;41.506;24.938;2022-08-21T09:51:27;92955.59;;;23.39;75.45
8294;BME280;4185;41.506;24.938;2022-08-21T09:53:58;92945.56;;;23.44;76.09
8294;BME280;4185;41.506;24.938;2022-08-21T09:56:29;92956.22;;;23.47;75.04
8294;BME280;4185;41.506;24.938;2022-08-21T09:59:20;92948.63;;;23.57;74.01
8294;BME280;4185;41.506;24.938;2022-08-21T10:01:53;92949.94;;;23.66;73.54
8294;BME280;4185;41.506;24.938;2022-08-21T10:04:26;92951.69;;;23.71;74.21
8294;BME280;4185;41.506;24.938;2022-08-21T10:06:53;92952.84;;;23.68;74.15
8294;BME280;4185;41.506;24.938;2022-08-21T10:09:20;92929.50;;;23.71;75.39
8294;BME280;4185;41.506;24.938;2022-08-21T10:11:55;92938.84;;;23.75;75.01
8294;BME280;4185;41.506;24.938;2022-08-21T10:14:41;92935.34;;;23.75;75.71
8294;BME280;4185;41.506;24.938;2022-08-21T10:17:17;92940.44;;;23.78;74.98
8294;BME280;4185;41.506;24.938;2022-08-21T10:19:52;92939.13;;;23.79;76.36
8294;BME280;4185;41.506;24.938;2022-08-21T10:22:32;92930.06;;;23.88;76.12
8294;BME280;4185;41.506;24.938;2022-08-21T10:25:08;92931.53;;;23.89;76.08
8294;BME280;4185;41.506;24.938;2022-08-21T10:27:43;92927.72;;;23.85;76.62
8294;BME280;4185;41.506;24.938;2022-08-21T10:30:16;92934.31;;;23.89;76.62
8294;BME280;4185;41.506;24.938;2022-08-21T10:33:07;92936.50;;;24.00;76.51
8294;BME280;4185;41.506;24.938;2022-08-21T10:35:41;92936.81;;;24.04;76.29
8294;BME280;4185;41.506;24.938;2022-08-21T10:38:41;92946.69;;;24.27;75.27
8294;BME280;4185;41.506;24.938;2022-08-21T10:41:17;92945.22;;;24.35;74.13
8294;BME280;4185;41.506;24.938;2022-08-21T10:43:52;92944.03;;;24.38;71.42
8294;BME280;4185;41.506;24.938;2022-08-21T10:46:37;92944.13;;;24.50;64.81
8294;BME280;4185;41.506;24.938;2022-08-21T10:49:17;92943.41;;;24.49;61.78
8294;BME280;4185;41.506;24.938;2022-08-21T10:51:53;92941.50;;;24.52;62.22
8294;BME280;4185;41.506;24.938;2022-08-21T10:54:27;92932.88;;;24.57;59.87
8294;BME280;4185;41.506;24.938;2022-08-21T10:57:00;92930.09;;;24.57;58.86
8294;BME280;4185;41.506;24.938;2022-08-21T10:59:32;92923.22;;;24.58;60.05
8294;BME280;4185;41.506;24.938;2022-08-21T11:02:07;92924.22;;;24.72;62.64
8294;BME280;4185;41.506;24.938;2022-08-21T11:04:48;92924.44;;;24.86;57.92
8294;BME280;4185;41.506;24.938;2022-08-21T11:07:20;92925.50;;;25.02;56.89
8294;BME280;4185;41.506;24.938;2022-08-21T11:09:52;92931.59;;;25.10;58.46
8294;BME280;4185;41.506;24.938;2022-08-21T11:12:25;92926.34;;;25.35;58.39
8294;BME280;4185;41.506;24.938;2022-08-21T11:14:58;92917.72;;;25.31;58.05
8294;BME280;4185;41.506;24.938;2022-08-21T11:17:32;92917.88;;;25.54;58.84
8294;BME280;4185;41.506;24.938;2022-08-21T11:20:07;92909.13;;;25.69;57.81
8294;BME280;4185;41.506;24.938;2022-08-21T11:22:41;92915.41;;;25.91;58.13
8294;BME280;4185;41.506;24.938;2022-08-21T11:25:20;92903.38;;;26.09;55.70
8294;BME280;4185;41.506;24.938;2022-08-21T11:27:52;92904.56;;;26.06;54.36
8294;BME280;4185;41.506;24.938;2022-08-21T11:30:21;92899.50;;;26.03;53.48
8294;BME280;4185;41.506;24.938;2022-08-21T11:33:04;92896.94;;;26.07;55.63
8294;BME280;4185;41.506;24.938;2022-08-21T11:35:39;92891.66;;;26.22;54.57
8294;BME280;4185;41.506;24.938;2022-08-21T11:38:22;92888.75;;;26.20;51.23
8294;BME280;4185;41.506;24.938;2022-08-21T11:41:08;92892.56;;;26.48;52.63
8294;BME280;4185;41.506;24.938;2022-08-21T11:43:41;92888.50;;;26.72;53.32
8294;BME280;4185;41.506;24.938;2022-08-21T11:46:18;92870.44;;;26.73;53.25
8294;BME280;4185;41.506;24.938;2022-08-21T11:49:06;92887.13;;;26.50;54.00
8294;BME280;4185;41.506;24.938;2022-08-21T11:51:41;92891.06;;;26.35;54.69
8294;BME280;4185;41.506;24.938;2022-08-21T11:54:16;92883.31;;;26.22;55.27
8294;BME280;4185;41.506;24.938;2022-08-21T11:56:51;92892.47;;;26.13;56.59
8294;BME280;4185;41.506;24.938;2022-08-21T11:59:23;92894.78;;;26.05;58.57
8294;BME280;4185;41.506;24.938;2022-08-21T12:01:50;92891.16;;;26.14;60.00
8294;BME280;4185;41.506;24.938;2022-08-21T12:04:26;92890.94;;;26.22;60.57
8294;BME280;4185;41.506;24.938;2022-08-21T12:06:55;92879.13;;;26.00;59.64
8294;BME280;4185;41.506;24.938;2022-08-21T12:09:32;92884.41;;;25.96;61.34
8294;BME280;4185;41.506;24.938;2022-08-21T12:12:03;92882.59;;;25.89;60.85
8294;BME280;4185;41.506;24.938;2022-08-21T12:14:41;92886.56;;;25.86;61.67
8294;BME280;4185;41.506;24.938;2022-08-21T12:17:17;92889.44;;;25.77;61.54
8294;BME280;4185;41.506;24.938;2022-08-21T12:19:44;92891.59;;;25.67;61.27
8294;BME280;4185;41.506;24.938;2022-08-21T12:22:14;92887.34;;;25.66;61.64
8294;BME280;4185;41.506;24.938;2022-08-21T12:24:43;92879.69;;;25.55;61.26
8294;BME280;4185;41.506;24.938;2022-08-21T12:27:21;92881.34;;;25.48;61.53
8294;BME280;4185;41.506;24.938;2022-08-21T12:29:53;92879.16;;;25.47;61.34
8294;BME280;4185;41.506;24.938;2022-08-21T12:32:25;92882.88;;;25.40;62.82
8294;BME280;4185;41.506;24.938;2022-08-21T12:34:55;92884.50;;;25.54;62.99
8294;BME280;4185;41.506;24.938;2022-08-21T12:37:34;92881.59;;;25.52;61.70
8294;BME280;4185;41.506;24.938;2022-08-21T12:40:11;92869.75;;;25.52;62.41
8294;BME280;4185;41.506;24.938;2022-08-21T12:42:39;92874.66;;;25.74;62.88
8294;BME280;4185;41.506;24.938;2022-08-21T12:45:16;92872.28;;;25.80;61.95
8294;BME280;4185;41.506;24.938;2022-08-21T12:47:47;92875.81;;;25.81;60.98
8294;BME280;4185;41.506;24.938;2022-08-21T12:50:19;92870.72;;;25.77;60.39
8294;BME280;4185;41.506;24.938;2022-08-21T12:52:55;92869.97;;;25.77;59.58
8294;BME280;4185;41.506;24.938;2022-08-21T12:55:28;92878.53;;;25.69;60.02
8294;BME280;4185;41.506;24.938;2022-08-21T12:57:55;92860.66;;;25.72;60.15
8294;BME280;4185;41.506;24.938;2022-08-21T13:00:24;92860.75;;;25.74;59.62
8294;BME280;4185;41.506;24.938;2022-08-21T13:02:52;92864.06;;;25.82;60.57
8294;BME280;4185;41.506;24.938;2022-08-21T13:05:28;92857.28;;;25.85;59.09
8294;BME280;4185;41.506;24.938;2022-08-21T13:07:57;92858.38;;;25.80;57.72
8294;BME280;4185;41.506;24.938;2022-08-21T13:10:28;92851.91;;;25.66;56.68
8294;BME280;4185;41.506;24.938;2022-08-21T13:12:56;92856.97;;;25.58;58.52
8294;BME280;4185;41.506;24.938;2022-08-21T13:15:28;92853.38;;;25.67;58.30
8294;BME280;4185;41.506;24.938;2022-08-21T13:17:56;92858.25;;;25.78;55.91
8294;BME280;4185;41.506;24.938;2022-08-21T13:20:29;92858.50;;;25.82;55.71
8294;BME280;4185;41.506;24.938;2022-08-21T13:23:00;92850.78;;;25.92;57.65
8294;BME280;4185;41.506;24.938;2022-08-21T13:25:28;92848.25;;;25.96;55.11
8294;BME280;4185;41.506;24.938;2022-08-21T13:28:00;92844.81;;;26.07;55.30
8294;BME280;4185;41.506;24.938;2022-08-21T13:30:28;92848.06;;;26.15;54.96
8294;BME280;4185;41.506;24.938;2022-08-21T13:32:58;92846.16;;;26.29;53.45
8294;BME280;4185;41.506;24.938;2022-08-21T13:35:45;92840.59;;;26.29;53.49